首页
METAR-TAF:

METAR-TAF

机场 :

基多, 厄瓜多尔

蘇克雷元帥國際機場

纬度: 0-06-48S, 经度: 78-21-31W, 海拔: 2400米

当前天气观测

该预报发布于11分钟前的15:00 UTC
风速2节,风向西南
温度 16°C
湿度 72%
气压 1025 hPa
能见度10公里或以上
散云层高于2000英尺
多云层高于7000英尺

METAR: SEQM 201500Z 22002KT 9999 SCT020 BKN070 16/11 Q1025 NOSIG RMK A3025

时间: 10:11 (15:11 UTC)

预报

该预报发布于5小时和41分钟前的09:30 UTC
预报有效从20日的 12点(UTC)到 21日的 12点(UTC)
风速3节,风向多变
能见度10公里或以上
散云层高于3000英尺
多云层高于10000英尺
从 20日的 1800点(UTC)
风速12节,风向
能见度10公里或以上
多云层高于3000英尺
散云层高于10000英尺
短暂存在
从 20日的 20点(UTC)到 20日的 22点(UTC)
阵雨
从 21日的 0000点(UTC)
风速4节,风向北转东北
能見度: 8000
少量云层高于500英尺
多云层高于2300英尺
多云层高于10000英尺
短暂存在
从 21日的 08点(UTC)到 21日的 11点(UTC)
能見度: 0800
散云层高于400英尺
多云层高于2000英尺

TAF: SEQM 200930Z 2012/2112 VRB03KT 9999 SCT030 BKN100 FM201800 36012KT 9999 BKN030 SCT100 TEMPO 2020/2022 SHRA FM210000 03004KT 8000 FEW005 BKN023 BKN100 TEMPO 2108/2111 0800 FG SCT004 BKN020 TX23/2019Z TN11/2111Z

超过4000个机场的气象观测和天气预报(METAR&TAF报告)。

可查询的气象台以黄色和红色小点在地图上表示。

将鼠标移到小点上方,可查看气象台名称。

然后点击查看天气观测和预报。

如需切换地图:点击带黑十字的绿色按钮放大地图;点击带横线的绿色按钮缩小地图;或者点击绿色箭头查看邻近地区的地图。


METAR-TAF: